Time;durP1;ratioP1;P1;durP2;ratioP2;P2;SDS_P1;SDS_P2;PMS_P1;PMS_P2;Temp;Humidity;BMP_temperature;BMP_pressure;BME280_temperature;BME280_humidity;BME280_pressure;Samples;Min_cycle;Max_cycle;Signal;HPM_P1;HPM_P2
2023/10/23 00:00:49;;;;;;;4.88;1.30;;;;;;;;;;8278248;28;20045;-74
2023/10/23 00:04:49;;;;;;;7.60;1.42;;;;;;;;;;8278941;28;20593;-74
2023/10/23 00:08:50;;;;;;;5.18;1.05;;;;;;;;;;8278586;28;20119;-73
2023/10/23 00:12:50;;;;;;;6.10;1.20;;;;;;;;;;8264586;28;20021;-73
2023/10/23 00:16:50;;;;;;;3.42;1.20;;;;;;;;;;8258622;28;20040;-73
2023/10/23 00:20:50;;;;;;;3.83;0.97;;;;;;;;;;8274641;28;20033;-74
2023/10/23 00:24:51;;;;;;;4.45;1.20;;;;;;;;;;8264994;28;20035;-74
2023/10/23 00:28:51;;;;;;;4.43;1.20;;;;;;;;;;8275945;28;20028;-74
2023/10/23 00:32:51;;;;;;;5.72;1.15;;;;;;;;;;8275969;28;20217;-74
2023/10/23 00:36:51;;;;;;;3.58;1.30;;;;;;;;;;8280079;28;20036;-73
2023/10/23 00:40:51;;;;;;;4.05;1.25;;;;;;;;;;8276839;28;21908;-72
2023/10/23 00:44:51;;;;;;;6.78;1.40;;;;;;;;;;8274149;28;20041;-74
2023/10/23 00:48:53;;;;;;;1.80;0.95;;;;;;;;;;8274342;28;20064;-74
2023/10/23 00:52:53;;;;;;;4.30;1.30;;;;;;;;;;8274604;28;21038;-74
2023/10/23 00:56:53;;;;;;;3.92;1.23;;;;;;;;;;8259430;28;20040;-74
2023/10/23 01:00:55;;;;;;;5.07;1.77;;;;;;;;;;8275676;28;20130;-74
2023/10/23 01:04:56;;;;;;;6.47;1.67;;;;;;;;;;8272414;28;20957;-73
2023/10/23 01:08:56;;;;;;;6.38;1.95;;;;;;;;;;8276591;28;20461;-72
2023/10/23 01:12:57;;;;;;;5.90;2.47;;;;;;;;;;8278682;28;20029;-74
2023/10/23 01:16:57;;;;;;;11.53;3.20;;;;;;;;;;8279508;28;20045;-72
2023/10/23 01:20:57;;;;;;;6.30;2.80;;;;;;;;;;8280143;28;20276;-74
2023/10/23 01:24:58;;;;;;;9.23;2.67;;;;;;;;;;8266765;28;20017;-74
2023/10/23 01:28:58;;;;;;;9.07;2.47;;;;;;;;;;8281241;28;20268;-72
2023/10/23 01:32:58;;;;;;;4.63;2.20;;;;;;;;;;8280342;28;20930;-74
2023/10/23 01:36:58;;;;;;;6.63;1.83;;;;;;;;;;8282579;28;20028;-74
2023/10/23 01:40:59;;;;;;;3.65;1.90;;;;;;;;;;8280607;28;20026;-74
2023/10/23 01:44:59;;;;;;;6.13;1.90;;;;;;;;;;8282649;28;20159;-74
2023/10/23 01:48:59;;;;;;;5.93;1.70;;;;;;;;;;8281301;28;20091;-73
2023/10/23 01:53:00;;;;;;;7.60;1.50;;;;;;;;;;8278573;28;20033;-74
2023/10/23 01:57:00;;;;;;;4.45;1.30;;;;;;;;;;8281208;28;20064;-73
2023/10/23 02:01:00;;;;;;;3.97;1.00;;;;;;;;;;8276039;28;20770;-73
2023/10/23 02:05:00;;;;;;;2.28;1.05;;;;;;;;;;8280537;28;20315;-74
2023/10/23 02:09:01;;;;;;;3.10;1.08;;;;;;;;;;8281240;28;20032;-74
2023/10/23 02:13:01;;;;;;;1.48;0.82;;;;;;;;;;8276607;28;20040;-74
2023/10/23 02:17:01;;;;;;;7.22;2.22;;;;;;;;;;8264286;28;20048;-74
2023/10/23 02:21:01;;;;;;;4.10;1.50;;;;;;;;;;8261412;28;20039;-74
2023/10/23 02:25:02;;;;;;;5.40;1.92;;;;;;;;;;8276578;28;20036;-74
2023/10/23 02:29:02;;;;;;;5.93;1.75;;;;;;;;;;8277706;28;20033;-74
2023/10/23 02:33:02;;;;;;;5.67;1.93;;;;;;;;;;8275972;28;20737;-74
2023/10/23 02:37:03;;;;;;;4.40;1.50;;;;;;;;;;8279260;28;20660;-74
2023/10/23 02:41:03;;;;;;;5.35;1.50;;;;;;;;;;8277986;28;20041;-73
2023/10/23 02:45:03;;;;;;;4.22;1.15;;;;;;;;;;8277622;28;20036;-74
2023/10/23 02:49:04;;;;;;;8.65;1.83;;;;;;;;;;8277885;28;21044;-74
2023/10/23 02:53:05;;;;;;;5.60;1.27;;;;;;;;;;8275593;28;20976;-73
2023/10/23 02:57:07;;;;;;;3.03;1.20;;;;;;;;;;8277757;28;20032;-74
2023/10/23 03:01:17;;;;;;;4.80;1.38;;;;;;;;;;8278991;28;20048;-74
2023/10/23 03:05:17;;;;;;;3.53;1.00;;;;;;;;;;8278783;28;20134;-74
2023/10/23 03:09:18;;;;;;;6.07;1.38;;;;;;;;;;8277825;28;20025;-74
2023/10/23 03:13:18;;;;;;;4.43;1.30;;;;;;;;;;8274212;28;20025;-74
2023/10/23 03:17:18;;;;;;;3.08;1.10;;;;;;;;;;8275506;28;20389;-74
2023/10/23 03:21:18;;;;;;;1.00;0.77;;;;;;;;;;8278179;28;20055;-74
2023/10/23 03:25:18;;;;;;;1.23;0.73;;;;;;;;;;8279805;28;20032;-74
2023/10/23 03:29:19;;;;;;;1.98;0.75;;;;;;;;;;8278980;28;20267;-74
2023/10/23 03:33:19;;;;;;;2.72;1.40;;;;;;;;;;8262890;28;20068;-74
2023/10/23 03:37:19;;;;;;;3.08;0.90;;;;;;;;;;8271174;28;20028;-73
2023/10/23 03:41:19;;;;;;;2.47;0.95;;;;;;;;;;8279832;28;20091;-74
2023/10/23 03:45:20;;;;;;;4.77;1.10;;;;;;;;;;8278222;28;20026;-74
2023/10/23 03:49:20;;;;;;;2.53;0.90;;;;;;;;;;8278983;28;20032;-74
2023/10/23 03:53:20;;;;;;;2.60;0.90;;;;;;;;;;8278066;28;20735;-74
2023/10/23 03:57:20;;;;;;;1.77;0.90;;;;;;;;;;8279218;28;20032;-73
2023/10/23 04:01:20;;;;;;;2.05;0.90;;;;;;;;;;8276745;28;20029;-74
2023/10/23 04:05:21;;;;;;;2.40;0.90;;;;;;;;;;8277020;28;20910;-74
2023/10/23 04:09:21;;;;;;;2.60;0.77;;;;;;;;;;8277646;28;20135;-73
2023/10/23 04:13:21;;;;;;;1.35;0.70;;;;;;;;;;8274540;28;20272;-74
2023/10/23 04:17:22;;;;;;;1.60;0.70;;;;;;;;;;8279289;28;20115;-74
2023/10/23 04:21:23;;;;;;;3.92;1.00;;;;;;;;;;8275441;28;20088;-74
2023/10/23 04:25:24;;;;;;;2.35;1.10;;;;;;;;;;8274465;28;20114;-74
2023/10/23 04:29:24;;;;;;;3.40;0.90;;;;;;;;;;8270578;28;20029;-74
2023/10/23 04:33:25;;;;;;;1.83;0.85;;;;;;;;;;8274729;28;20043;-74
2023/10/23 04:37:25;;;;;;;2.75;1.08;;;;;;;;;;8278548;28;20047;-74
2023/10/23 04:41:25;;;;;;;4.60;1.45;;;;;;;;;;8257315;28;20036;-74
2023/10/23 04:45:25;;;;;;;5.00;1.17;;;;;;;;;;8266024;28;20060;-73
2023/10/23 04:49:25;;;;;;;3.80;1.10;;;;;;;;;;8282248;28;20132;-74
2023/10/23 04:53:26;;;;;;;2.40;0.90;;;;;;;;;;8281008;28;20078;-73
2023/10/23 04:57:28;;;;;;;0.85;0.77;;;;;;;;;;8281054;28;20083;-73
2023/10/23 05:01:28;;;;;;;5.70;1.35;;;;;;;;;;8279592;28;20045;-74
2023/10/23 05:05:29;;;;;;;4.22;1.33;;;;;;;;;;8276984;28;20021;-74
2023/10/23 05:09:30;;;;;;;4.57;1.17;;;;;;;;;;8280442;28;21006;-74
2023/10/23 05:13:30;;;;;;;5.88;1.13;;;;;;;;;;8280407;28;20025;-74
2023/10/23 05:17:30;;;;;;;2.70;1.20;;;;;;;;;;8279289;28;21071;-74
2023/10/23 05:21:31;;;;;;;6.70;1.70;;;;;;;;;;8279575;28;20771;-74
2023/10/23 05:25:31;;;;;;;3.33;1.70;;;;;;;;;;8262892;28;20021;-74
2023/10/23 05:29:31;;;;;;;9.83;2.80;;;;;;;;;;8278733;28;20035;-74
2023/10/23 05:33:31;;;;;;;6.28;2.63;;;;;;;;;;8271070;28;20296;-74
2023/10/23 05:37:35;;;;;;;5.88;2.28;;;;;;;;;;8281346;28;20128;-73
2023/10/23 05:41:35;;;;;;;4.13;1.67;;;;;;;;;;8283173;28;20880;-74
2023/10/23 05:45:38;;;;;;;3.30;1.80;;;;;;;;;;8282976;28;20025;-74
2023/10/23 05:49:38;;;;;;;5.47;1.97;;;;;;;;;;8284199;28;20056;-74
2023/10/23 05:53:38;;;;;;;7.85;1.73;;;;;;;;;;8269548;28;20025;-74
2023/10/23 05:57:39;;;;;;;4.15;1.77;;;;;;;;;;8281387;28;20120;-73
2023/10/23 06:01:39;;;;;;;5.18;2.00;;;;;;;;;;8279314;28;20045;-74
2023/10/23 06:05:41;;;;;;;4.63;1.65;;;;;;;;;;8273539;28;20018;-75
2023/10/23 06:09:41;;;;;;;3.67;1.70;;;;;;;;;;8283571;28;20140;-77
2023/10/23 06:13:41;;;;;;;5.72;1.83;;;;;;;;;;8283699;28;20619;-76
2023/10/23 06:17:41;;;;;;;6.73;1.70;;;;;;;;;;8272692;28;20033;-76
2023/10/23 06:21:41;;;;;;;2.85;1.35;;;;;;;;;;8275750;28;20292;-76
2023/10/23 06:25:41;;;;;;;5.25;1.75;;;;;;;;;;8280555;28;20132;-77
2023/10/23 06:29:42;;;;;;;3.60;1.80;;;;;;;;;;8280536;28;20026;-77
2023/10/23 06:33:46;;;;;;;7.63;2.00;;;;;;;;;;8280111;28;20028;-77
2023/10/23 06:37:48;;;;;;;5.68;1.95;;;;;;;;;;8281671;28;20864;-76
2023/10/23 06:41:48;;;;;;;4.85;1.80;;;;;;;;;;8280763;28;20095;-77
2023/10/23 06:45:50;;;;;;;9.48;2.80;;;;;;;;;;8277097;28;20095;-76
2023/10/23 06:49:50;;;;;;;13.73;4.18;;;;;;;;;;8267665;28;20028;-77
2023/10/23 06:53:50;;;;;;;7.03;2.10;;;;;;;;;;8281090;28;20040;-77
2023/10/23 06:57:50;;;;;;;7.25;2.80;;;;;;;;;;8275040;28;22609;-77
2023/10/23 07:01:51;;;;;;;5.68;2.60;;;;;;;;;;8277898;28;20563;-76
2023/10/23 07:05:51;;;;;;;4.38;2.40;;;;;;;;;;8252137;28;20031;-76
2023/10/23 07:09:54;;;;;;;8.27;2.63;;;;;;;;;;8280079;28;20021;-76
2023/10/23 07:13:54;;;;;;;5.77;2.37;;;;;;;;;;8277932;28;20036;-75
2023/10/23 07:17:55;;;;;;;20.92;2.10;;;;;;;;;;8258049;28;21804;-75
2023/10/23 07:21:55;;;;;;;11.00;2.13;;;;;;;;;;8281034;28;20029;-75
2023/10/23 07:26:14;;;;;;;15.57;4.43;;;;;;;;;;8281333;28;20087;-76
2023/10/23 07:30:14;;;;;;;32.88;3.60;;;;;;;;;;8279556;28;20073;-76
2023/10/23 07:34:15;;;;;;;9.23;2.87;;;;;;;;;;8277594;28;20064;-76
2023/10/23 07:38:15;;;;;;;11.18;2.80;;;;;;;;;;8278437;28;20864;-76
2023/10/23 07:42:15;;;;;;;8.30;2.53;;;;;;;;;;8278366;28;20140;-77
2023/10/23 07:46:15;;;;;;;6.33;2.20;;;;;;;;;;8266752;28;20064;-76
2023/10/23 07:50:16;;;;;;;8.68;2.40;;;;;;;;;;8278530;28;20264;-76
2023/10/23 07:54:16;;;;;;;7.50;2.15;;;;;;;;;;8268722;28;20651;-77
2023/10/23 07:58:17;;;;;;;5.05;2.15;;;;;;;;;;8276985;28;20049;-76
2023/10/23 08:02:17;;;;;;;3.22;2.15;;;;;;;;;;8277184;28;20060;-77
2023/10/23 08:06:17;;;;;;;6.70;2.70;;;;;;;;;;8275597;28;20017;-77
2023/10/23 08:10:18;;;;;;;6.85;2.28;;;;;;;;;;8260941;28;20022;-77
2023/10/23 08:14:18;;;;;;;6.28;2.38;;;;;;;;;;8259669;28;20186;-77
2023/10/23 08:18:18;;;;;;;6.47;2.17;;;;;;;;;;8270725;28;20041;-76
2023/10/23 08:22:19;;;;;;;5.07;1.83;;;;;;;;;;8266888;28;20031;-77
2023/10/23 08:26:20;;;;;;;2.63;1.55;;;;;;;;;;8282969;28;20365;-76
2023/10/23 08:30:20;;;;;;;2.88;1.45;;;;;;;;;;8271234;28;21230;-76
2023/10/23 08:34:23;;;;;;;3.65;1.90;;;;;;;;;;8276451;28;20043;-76
2023/10/23 08:38:23;;;;;;;5.40;2.10;;;;;;;;;;8282018;28;20578;-76
2023/10/23 08:42:23;;;;;;;4.32;1.73;;;;;;;;;;8285467;28;20306;-76
2023/10/23 08:46:31;;;;;;;3.47;1.57;;;;;;;;;;8266422;28;20041;-76
2023/10/23 08:50:31;;;;;;;3.03;1.70;;;;;;;;;;8283430;28;20283;-76
2023/10/23 08:54:32;;;;;;;4.47;2.10;;;;;;;;;;8273221;28;20838;-75
2023/10/23 08:58:33;;;;;;;2.58;1.75;;;;;;;;;;8272025;28;20683;-76
2023/10/23 09:02:33;;;;;;;4.60;2.10;;;;;;;;;;8281171;28;20083;-75
2023/10/23 09:06:35;;;;;;;4.20;2.03;;;;;;;;;;8270132;28;20049;-75
2023/10/23 09:10:55;;;;;;;5.28;2.15;;;;;;;;;;8284605;28;20005;-77
2023/10/23 09:14:55;;;;;;;5.25;2.08;;;;;;;;;;8258743;28;20025;-76
2023/10/23 09:18:56;;;;;;;3.70;1.90;;;;;;;;;;8280271;28;20048;-77
2023/10/23 09:22:58;;;;;;;5.50;2.35;;;;;;;;;;8267390;28;20063;-77
2023/10/23 09:26:58;;;;;;;6.57;2.30;;;;;;;;;;8285036;28;20182;-76
2023/10/23 09:30:59;;;;;;;6.13;2.22;;;;;;;;;;8280312;28;20167;-76
2023/10/23 09:34:59;;;;;;;5.03;2.10;;;;;;;;;;8266001;28;20024;-75
2023/10/23 09:39:00;;;;;;;5.22;2.10;;;;;;;;;;8284468;28;20028;-77
2023/10/23 09:43:01;;;;;;;5.40;2.20;;;;;;;;;;8284645;28;20028;-77
2023/10/23 09:47:01;;;;;;;6.68;2.58;;;;;;;;;;8287479;28;20096;-76
2023/10/23 09:51:03;;;;;;;3.67;2.70;;;;;;;;;;8274150;28;20501;-77
2023/10/23 09:55:07;;;;;;;6.72;2.97;;;;;;;;;;8271343;28;20036;-77
2023/10/23 09:59:08;;;;;;;4.88;3.13;;;;;;;;;;8285339;28;20045;-77
2023/10/23 10:03:11;;;;;;;6.15;3.65;;;;;;;;;;8273066;28;20048;-79
2023/10/23 10:07:14;;;;;;;8.00;3.33;;;;;;;;;;8286457;28;20025;-77
2023/10/23 10:11:14;;;;;;;5.90;3.20;;;;;;;;;;8285496;28;20032;-77
2023/10/23 10:15:15;;;;;;;4.78;3.40;;;;;;;;;;8285537;28;20024;-78
2023/10/23 10:19:16;;;;;;;7.70;3.65;;;;;;;;;;8283720;28;20032;-79
2023/10/23 10:23:17;;;;;;;7.38;3.92;;;;;;;;;;8275536;28;20034;-78
2023/10/23 10:27:17;;;;;;;8.60;3.65;;;;;;;;;;8285803;28;20495;-77
2023/10/23 10:31:17;;;;;;;6.35;4.05;;;;;;;;;;8282087;28;20132;-77
2023/10/23 10:35:30;;;;;;;7.57;3.85;;;;;;;;;;8280028;28;20036;-77
2023/10/23 10:39:50;;;;;;;7.15;3.88;;;;;;;;;;8280247;28;20489;-76
2023/10/23 10:43:51;;;;;;;6.85;4.00;;;;;;;;;;8280438;28;20028;-76
2023/10/23 10:47:52;;;;;;;5.35;3.50;;;;;;;;;;8279223;28;20125;-75
2023/10/23 10:51:52;;;;;;;5.93;4.00;;;;;;;;;;8262952;28;20025;-75
2023/10/23 10:55:52;;;;;;;7.65;4.07;;;;;;;;;;8273464;28;20151;-75
2023/10/23 10:59:57;;;;;;;9.50;4.80;;;;;;;;;;8272334;28;20851;-75
2023/10/23 11:03:57;;;;;;;6.70;4.40;;;;;;;;;;8278020;28;20075;-75
2023/10/23 11:07:58;;;;;;;7.50;4.65;;;;;;;;;;8280573;28;20350;-76
2023/10/23 11:12:01;;;;;;;8.40;4.90;;;;;;;;;;8282103;28;20028;-80
2023/10/23 11:16:04;;;;;;;8.00;4.40;;;;;;;;;;8282087;28;20159;-75
2023/10/23 11:20:05;;;;;;;6.82;4.40;;;;;;;;;;8282615;28;21385;-74
2023/10/23 11:24:06;;;;;;;7.25;4.80;;;;;;;;;;8280689;28;20582;-74
2023/10/23 11:28:07;;;;;;;6.10;5.25;;;;;;;;;;8273440;28;20053;-75
2023/10/23 11:32:07;;;;;;;5.65;4.10;;;;;;;;;;8257706;28;20043;-74
2023/10/23 11:36:08;;;;;;;8.47;4.40;;;;;;;;;;8281242;28;20041;-75
2023/10/23 11:40:09;;;;;;;6.82;3.95;;;;;;;;;;8281120;28;20040;-74
2023/10/23 11:44:09;;;;;;;6.95;4.47;;;;;;;;;;8271893;28;20056;-74
2023/10/23 11:48:12;;;;;;;9.82;4.80;;;;;;;;;;8280395;28;20954;-74
2023/10/23 11:52:12;;;;;;;6.80;5.22;;;;;;;;;;8280362;28;20039;-75
2023/10/23 11:56:12;;;;;;;7.63;5.28;;;;;;;;;;8278917;28;20021;-75
2023/10/23 12:00:14;;;;;;;7.50;4.90;;;;;;;;;;8279387;28;20075;-74
2023/10/23 12:04:14;;;;;;;6.53;4.53;;;;;;;;;;8278139;28;20028;-74
2023/10/23 12:08:14;;;;;;;9.00;4.95;;;;;;;;;;8264113;28;20029;-75
2023/10/23 12:12:14;;;;;;;6.38;4.80;;;;;;;;;;8280222;28;20025;-75
2023/10/23 12:16:14;;;;;;;8.02;5.30;;;;;;;;;;8278994;28;20049;-75
2023/10/23 12:20:16;;;;;;;9.68;5.50;;;;;;;;;;8260915;28;20045;-75
2023/10/23 12:24:16;;;;;;;8.10;6.30;;;;;;;;;;8278491;28;20036;-74
2023/10/23 12:28:16;;;;;;;12.55;6.97;;;;;;;;;;8278550;28;20017;-75
2023/10/23 12:32:17;;;;;;;9.65;6.90;;;;;;;;;;8277038;28;20168;-75
2023/10/23 12:36:17;;;;;;;12.55;7.60;;;;;;;;;;8281864;28;20075;-74
2023/10/23 12:40:17;;;;;;;14.05;8.70;;;;;;;;;;8262770;28;20604;-74
2023/10/23 12:44:17;;;;;;;13.05;7.75;;;;;;;;;;8270260;28;20033;-75
2023/10/23 12:48:17;;;;;;;12.50;7.50;;;;;;;;;;8273338;28;20301;-74
2023/10/23 12:52:18;;;;;;;13.57;8.10;;;;;;;;;;8277244;28;20041;-74
2023/10/23 12:56:18;;;;;;;16.77;8.85;;;;;;;;;;8262326;28;20033;-75
2023/10/23 13:00:19;;;;;;;14.00;9.27;;;;;;;;;;8269468;28;20902;-75
2023/10/23 13:04:22;;;;;;;15.00;9.20;;;;;;;;;;8280978;28;20085;-75
2023/10/23 13:08:22;;;;;;;14.00;8.60;;;;;;;;;;8284976;28;20051;-75
2023/10/23 13:12:22;;;;;;;20.15;8.45;;;;;;;;;;8285417;28;20051;-75
2023/10/23 13:16:22;;;;;;;10.98;8.02;;;;;;;;;;8287261;28;20037;-75
2023/10/23 13:20:23;;;;;;;12.65;7.13;;;;;;;;;;8282805;28;20024;-74
2023/10/23 13:24:23;;;;;;;12.63;7.43;;;;;;;;;;8265024;28;20033;-74
2023/10/23 13:28:23;;;;;;;10.23;6.53;;;;;;;;;;8286102;28;20021;-75
2023/10/23 13:32:23;;;;;;;12.87;6.93;;;;;;;;;;8272630;28;20560;-75
2023/10/23 13:36:24;;;;;;;11.98;7.15;;;;;;;;;;8289578;28;20283;-74
2023/10/23 13:40:24;;;;;;;12.80;6.38;;;;;;;;;;8289223;28;20021;-74
2023/10/23 13:44:24;;;;;;;12.93;6.47;;;;;;;;;;8286145;28;20025;-75
2023/10/23 13:48:24;;;;;;;10.65;5.38;;;;;;;;;;8286052;28;20040;-74
2023/10/23 13:52:25;;;;;;;11.02;5.70;;;;;;;;;;8272507;28;20028;-73
2023/10/23 13:56:25;;;;;;;9.73;4.85;;;;;;;;;;8285808;28;20033;-73
2023/10/23 14:00:25;;;;;;;6.85;3.03;;;;;;;;;;8265261;28;20033;-73
2023/10/23 14:04:25;;;;;;;6.47;3.10;;;;;;;;;;8285748;28;22143;-72
2023/10/23 14:08:26;;;;;;;5.15;2.63;;;;;;;;;;8280954;28;20026;-74
2023/10/23 14:12:26;;;;;;;7.88;2.00;;;;;;;;;;8286224;28;20027;-74
2023/10/23 14:16:26;;;;;;;6.05;1.77;;;;;;;;;;8283843;28;20056;-74
2023/10/23 14:20:26;;;;;;;8.88;2.30;;;;;;;;;;8271120;28;20063;-73
2023/10/23 14:24:27;;;;;;;10.27;3.57;;;;;;;;;;8263604;28;20025;-73
2023/10/23 14:28:27;;;;;;;9.82;2.72;;;;;;;;;;8263232;28;20081;-73
2023/10/23 14:32:27;;;;;;;10.25;3.28;;;;;;;;;;8271340;28;20641;-73
2023/10/23 14:36:27;;;;;;;6.03;2.63;;;;;;;;;;8285854;28;20048;-74
2023/10/23 14:40:28;;;;;;;5.93;2.60;;;;;;;;;;8288239;28;20026;-73
2023/10/23 14:44:29;;;;;;;11.57;3.15;;;;;;;;;;8292595;28;20029;-74
2023/10/23 14:48:29;;;;;;;6.15;2.45;;;;;;;;;;8293909;28;20052;-74
2023/10/23 14:52:30;;;;;;;7.17;2.30;;;;;;;;;;8295067;28;20033;-74
2023/10/23 14:56:31;;;;;;;5.38;2.13;;;;;;;;;;8287130;28;20045;-74
2023/10/23 15:00:34;;;;;;;8.43;2.80;;;;;;;;;;8289919;28;20559;-74
2023/10/23 15:04:34;;;;;;;9.90;2.60;;;;;;;;;;8290272;28;20016;-74
2023/10/23 15:08:34;;;;;;;10.63;3.40;;;;;;;;;;8278191;28;20132;-74
2023/10/23 15:12:35;;;;;;;11.68;5.05;;;;;;;;;;8289296;28;20021;-73
2023/10/23 15:16:36;;;;;;;10.45;3.90;;;;;;;;;;8290631;28;20911;-74
2023/10/23 15:20:36;;;;;;;7.38;3.05;;;;;;;;;;8289145;28;20430;-74
2023/10/23 15:24:37;;;;;;;7.68;3.15;;;;;;;;;;8288840;28;20091;-74
2023/10/23 15:28:38;;;;;;;7.97;3.22;;;;;;;;;;8287471;28;20034;-74
2023/10/23 15:32:38;;;;;;;4.90;2.63;;;;;;;;;;8280352;28;20049;-74
2023/10/23 15:36:38;;;;;;;5.17;2.30;;;;;;;;;;8273457;28;20041;-74
2023/10/23 15:40:38;;;;;;;6.70;2.38;;;;;;;;;;8270062;28;20056;-74
2023/10/23 15:44:40;;;;;;;6.80;2.30;;;;;;;;;;8284819;28;20028;-73
2023/10/23 15:48:41;;;;;;;5.38;2.40;;;;;;;;;;8285918;28;20033;-73
2023/10/23 15:52:41;;;;;;;5.75;2.40;;;;;;;;;;8285178;28;20025;-73
2023/10/23 15:56:42;;;;;;;6.35;2.38;;;;;;;;;;8283978;28;20405;-74
2023/10/23 16:00:44;;;;;;;4.85;2.15;;;;;;;;;;8285190;28;20044;-73
2023/10/23 16:04:46;;;;;;;15.40;5.07;;;;;;;;;;8283311;28;20052;-73
2023/10/23 16:08:46;;;;;;;32.33;8.73;;;;;;;;;;8284741;28;20555;-74
2023/10/23 16:12:46;;;;;;;29.80;7.88;;;;;;;;;;8286057;28;20080;-73
2023/10/23 16:16:47;;;;;;;23.33;7.67;;;;;;;;;;8269809;28;20045;-74
2023/10/23 16:20:49;;;;;;;34.40;9.43;;;;;;;;;;8275740;28;20303;-74
2023/10/23 16:24:49;;;;;;;35.35;9.95;;;;;;;;;;8272485;28;20211;-75
2023/10/23 16:28:49;;;;;;;18.58;6.25;;;;;;;;;;8286990;28;20060;-74
2023/10/23 16:32:54;;;;;;;6.80;3.28;;;;;;;;;;8269556;28;20048;-75
2023/10/23 16:36:54;;;;;;;6.40;2.88;;;;;;;;;;8278952;28;20076;-74
2023/10/23 16:40:54;;;;;;;9.40;2.70;;;;;;;;;;8291200;28;20025;-74
2023/10/23 16:44:55;;;;;;;9.97;4.60;;;;;;;;;;8273616;28;21296;-74
2023/10/23 16:48:55;;;;;;;7.60;3.67;;;;;;;;;;8286417;28;20351;-74
2023/10/23 16:53:00;;;;;;;10.15;4.22;;;;;;;;;;8282208;28;20025;-75
2023/10/23 16:57:00;;;;;;;9.70;4.28;;;;;;;;;;8288455;28;20259;-74
2023/10/23 17:01:06;;;;;;;6.68;3.67;;;;;;;;;;8291365;28;20068;-76
2023/10/23 17:05:06;;;;;;;5.05;2.67;;;;;;;;;;8268578;28;20046;-66
2023/10/23 17:09:09;;;;;;;4.22;2.60;;;;;;;;;;8257866;28;20103;-66
2023/10/23 17:17:19;;;;;;;2.97;2.08;;;;;;;;;;8499415;22;20449;-66
2023/10/23 17:21:20;;;;;;;3.08;2.40;;;;;;;;;;8165807;28;22350;-65
2023/10/23 17:25:20;;;;;;;5.70;2.70;;;;;;;;;;8166993;28;20041;-67
2023/10/23 17:29:20;;;;;;;6.25;2.92;;;;;;;;;;8166598;28;20031;-66
2023/10/23 17:33:24;;;;;;;5.40;3.03;;;;;;;;;;8165508;28;20039;-66
2023/10/23 17:37:25;;;;;;;6.00;2.78;;;;;;;;;;8168016;28;20018;-66
2023/10/23 17:41:25;;;;;;;3.75;2.70;;;;;;;;;;8168520;28;20019;-72
2023/10/23 17:45:25;;;;;;;4.43;2.80;;;;;;;;;;8170863;28;20031;-73
2023/10/23 17:49:25;;;;;;;10.38;5.00;;;;;;;;;;8192348;28;20274;-73
2023/10/23 17:53:26;;;;;;;9.75;5.05;;;;;;;;;;8188403;28;20015;-73
2023/10/23 17:57:28;;;;;;;8.95;4.18;;;;;;;;;;8174490;28;20050;-73
2023/10/23 18:01:28;;;;;;;8.25;3.10;;;;;;;;;;8171193;28;20046;-74
2023/10/23 18:05:28;;;;;;;5.50;3.00;;;;;;;;;;8169541;28;20799;-74
2023/10/23 18:09:29;;;;;;;13.53;5.07;;;;;;;;;;8175216;28;20337;-73
2023/10/23 18:13:29;;;;;;;9.43;3.90;;;;;;;;;;8174383;28;20330;-72
2023/10/23 18:17:29;;;;;;;5.27;3.53;;;;;;;;;;8170120;28;20113;-74
2023/10/23 18:21:29;;;;;;;8.70;3.73;;;;;;;;;;8168177;28;20285;-73
2023/10/23 18:25:30;;;;;;;9.38;5.82;;;;;;;;;;8163541;28;20330;-74
2023/10/23 18:29:32;;;;;;;14.68;6.60;;;;;;;;;;8148693;28;20047;-72
2023/10/23 18:33:33;;;;;;;12.95;5.57;;;;;;;;;;8148121;28;20129;-73
2023/10/23 18:37:33;;;;;;;10.38;4.15;;;;;;;;;;8146167;28;20114;-73
2023/10/23 18:41:33;;;;;;;14.93;5.55;;;;;;;;;;8153327;28;20134;-74
2023/10/23 18:45:33;;;;;;;11.48;4.95;;;;;;;;;;8148885;28;20115;-74
2023/10/23 18:49:34;;;;;;;8.70;4.45;;;;;;;;;;8147047;28;20097;-74
2023/10/23 18:53:34;;;;;;;12.70;5.00;;;;;;;;;;8147589;28;20035;-73
2023/10/23 18:57:35;;;;;;;9.27;4.85;;;;;;;;;;8147965;28;20042;-73
2023/10/23 19:01:35;;;;;;;9.68;4.47;;;;;;;;;;8150346;28;20791;-73
2023/10/23 19:05:36;;;;;;;8.93;4.10;;;;;;;;;;8152343;28;20026;-74
2023/10/23 19:09:36;;;;;;;6.00;4.20;;;;;;;;;;8138271;28;20145;-73
2023/10/23 19:13:36;;;;;;;7.63;3.95;;;;;;;;;;8151945;28;20031;-73
2023/10/23 19:17:36;;;;;;;7.68;4.70;;;;;;;;;;8150601;28;20117;-74
2023/10/23 19:21:36;;;;;;;8.23;5.53;;;;;;;;;;8141919;28;20054;-75
2023/10/23 19:25:36;;;;;;;10.25;5.57;;;;;;;;;;8150313;28;20030;-75
2023/10/23 19:29:37;;;;;;;8.98;5.47;;;;;;;;;;8142974;28;20034;-72
2023/10/23 19:33:37;;;;;;;7.47;5.68;;;;;;;;;;8137987;28;20043;-71
2023/10/23 19:37:40;;;;;;;11.67;6.40;;;;;;;;;;8141721;28;20146;-71
2023/10/23 19:41:46;;;;;;;11.95;6.13;;;;;;;;;;8141478;28;20473;-71
2023/10/23 19:45:47;;;;;;;10.05;5.72;;;;;;;;;;8138659;28;20809;-71
2023/10/23 19:49:47;;;;;;;7.82;4.82;;;;;;;;;;8138871;28;20187;-71
2023/10/23 19:53:50;;;;;;;7.68;4.32;;;;;;;;;;8141445;28;20035;-71
2023/10/23 19:57:50;;;;;;;5.47;4.18;;;;;;;;;;8137504;28;20264;-71
2023/10/23 20:01:53;;;;;;;8.52;4.60;;;;;;;;;;8143512;28;20162;-71
2023/10/23 20:05:54;;;;;;;8.88;4.45;;;;;;;;;;8143526;28;22118;-71
2023/10/23 20:09:55;;;;;;;7.38;4.32;;;;;;;;;;8149163;28;20027;-71
2023/10/23 20:13:56;;;;;;;6.25;3.90;;;;;;;;;;8141250;28;20042;-71
2023/10/23 20:17:56;;;;;;;9.25;5.10;;;;;;;;;;8148670;28;20113;-71
2023/10/23 20:21:57;;;;;;;7.43;4.83;;;;;;;;;;8142173;28;20995;-72
2023/10/23 20:25:58;;;;;;;6.43;4.40;;;;;;;;;;8148565;28;20061;-72
2023/10/23 20:29:58;;;;;;;13.07;8.77;;;;;;;;;;8149230;28;20166;-71
2023/10/23 20:33:58;;;;;;;16.95;9.80;;;;;;;;;;8147908;28;20147;-71
2023/10/23 20:37:59;;;;;;;10.88;6.45;;;;;;;;;;8150734;28;20046;-70
2023/10/23 20:41:59;;;;;;;6.75;6.00;;;;;;;;;;8148833;28;20045;-71
2023/10/23 20:45:59;;;;;;;6.22;5.57;;;;;;;;;;8147179;28;20191;-71
2023/10/23 20:50:01;;;;;;;9.27;5.32;;;;;;;;;;8150671;28;20958;-71
2023/10/23 20:54:01;;;;;;;7.80;5.10;;;;;;;;;;8149650;28;20137;-71
2023/10/23 20:58:01;;;;;;;5.97;4.47;;;;;;;;;;8149712;28;20027;-71
2023/10/23 21:02:02;;;;;;;9.40;4.40;;;;;;;;;;8145525;28;20035;-71
2023/10/23 21:06:06;;;;;;;6.50;4.07;;;;;;;;;;8144254;28;20865;-71
2023/10/23 21:10:06;;;;;;;6.07;4.88;;;;;;;;;;8145720;28;20034;-71
2023/10/23 21:14:07;;;;;;;5.65;3.95;;;;;;;;;;8147059;28;20046;-72
2023/10/23 21:18:07;;;;;;;8.18;4.15;;;;;;;;;;8149454;28;20050;-70
2023/10/23 21:22:07;;;;;;;5.90;3.90;;;;;;;;;;8148044;28;20434;-71
2023/10/23 21:26:07;;;;;;;5.47;4.00;;;;;;;;;;8149735;28;20035;-71
2023/10/23 21:30:08;;;;;;;5.45;3.80;;;;;;;;;;8146629;28;20059;-71
2023/10/23 21:34:08;;;;;;;4.88;3.88;;;;;;;;;;8150809;28;20778;-71
2023/10/23 21:38:08;;;;;;;7.10;4.57;;;;;;;;;;8145008;28;20045;-71
2023/10/23 21:42:08;;;;;;;7.35;4.38;;;;;;;;;;8145950;28;20097;-70
2023/10/23 21:46:08;;;;;;;7.82;3.92;;;;;;;;;;8147916;28;20950;-71
2023/10/23 21:50:09;;;;;;;7.57;4.30;;;;;;;;;;8147292;28;20478;-71
2023/10/23 21:54:09;;;;;;;7.72;4.38;;;;;;;;;;8141178;28;20031;-71
2023/10/23 21:58:09;;;;;;;8.30;3.70;;;;;;;;;;8145133;28;20070;-71
2023/10/23 22:02:10;;;;;;;5.55;3.55;;;;;;;;;;8149747;28;20504;-71
2023/10/23 22:06:11;;;;;;;5.05;3.45;;;;;;;;;;8152012;28;20033;-71
2023/10/23 22:10:12;;;;;;;7.35;4.28;;;;;;;;;;8157147;28;20117;-70
2023/10/23 22:14:13;;;;;;;5.70;3.60;;;;;;;;;;8152898;28;20104;-71
2023/10/23 22:18:13;;;;;;;4.50;3.78;;;;;;;;;;8153843;28;20039;-70
2023/10/23 22:22:13;;;;;;;7.10;4.63;;;;;;;;;;8155663;28;20676;-71
2023/10/23 22:26:13;;;;;;;5.50;3.92;;;;;;;;;;8154147;28;20151;-71
2023/10/23 22:30:13;;;;;;;6.27;4.13;;;;;;;;;;8151406;28;21018;-71
2023/10/23 22:34:14;;;;;;;6.57;4.45;;;;;;;;;;8153116;28;20887;-71
2023/10/23 22:38:14;;;;;;;9.35;5.47;;;;;;;;;;8153392;28;20027;-70
2023/10/23 22:42:14;;;;;;;9.73;5.50;;;;;;;;;;8151427;28;20024;-71
2023/10/23 22:46:14;;;;;;;8.77;5.27;;;;;;;;;;8153294;28;20621;-71
2023/10/23 22:50:15;;;;;;;7.95;5.13;;;;;;;;;;8153098;28;21245;-70
2023/10/23 22:54:15;;;;;;;9.88;5.82;;;;;;;;;;8153368;28;20847;-70
2023/10/23 22:58:16;;;;;;;14.68;9.20;;;;;;;;;;8151067;28;20579;-69
2023/10/23 23:02:17;;;;;;;7.38;4.38;;;;;;;;;;8150671;28;20488;-70
2023/10/23 23:06:18;;;;;;;5.35;4.13;;;;;;;;;;8152388;28;20465;-70
2023/10/23 23:10:19;;;;;;;6.03;3.33;;;;;;;;;;8153380;28;20025;-70
2023/10/23 23:14:19;;;;;;;4.57;2.40;;;;;;;;;;8150100;28;20462;-70
2023/10/23 23:18:21;;;;;;;3.33;2.40;;;;;;;;;;8151022;28;20047;-69
2023/10/23 23:22:21;;;;;;;4.07;2.13;;;;;;;;;;8160127;28;20022;-70
2023/10/23 23:26:21;;;;;;;3.00;1.75;;;;;;;;;;8154498;28;20031;-70
2023/10/23 23:30:21;;;;;;;3.45;1.48;;;;;;;;;;8150722;28;20090;-70
2023/10/23 23:34:22;;;;;;;3.53;1.80;;;;;;;;;;8153230;28;20042;-70
2023/10/23 23:38:22;;;;;;;5.45;2.00;;;;;;;;;;8150205;28;20278;-70
2023/10/23 23:42:23;;;;;;;3.20;1.90;;;;;;;;;;8153040;28;20882;-69
2023/10/23 23:46:23;;;;;;;3.60;2.17;;;;;;;;;;8155054;28;20038;-69
2023/10/23 23:50:23;;;;;;;3.72;2.00;;;;;;;;;;8153700;28;20023;-70
2023/10/23 23:54:23;;;;;;;4.83;2.23;;;;;;;;;;8162022;28;20031;-69
2023/10/23 23:58:25;;;;;;;4.22;2.03;;;;;;;;;;8154644;28;20274;-70
